sensor_id;sensor_type;location;lat;lon;timestamp;pressure;altitude;pressure_sealevel;temperature;humidity
12471;BME280;36499;46.484;13.832;2022-10-15T00:01:16;93210.38;;;11.54;80.08
12471;BME280;36499;46.484;13.832;2022-10-15T00:03:45;93196.53;;;11.54;80.39
12471;BME280;36499;46.484;13.832;2022-10-15T00:06:15;93199.16;;;11.54;81.43
12471;BME280;36499;46.484;13.832;2022-10-15T00:08:43;93203.72;;;11.59;81.68
12471;BME280;36499;46.484;13.832;2022-10-15T00:11:16;93207.34;;;11.57;81.76
12471;BME280;36499;46.484;13.832;2022-10-15T00:13:45;93202.72;;;11.60;82.01
12471;BME280;36499;46.484;13.832;2022-10-15T00:16:16;93204.44;;;11.47;79.96
12471;BME280;36499;46.484;13.832;2022-10-15T00:18:46;93216.13;;;11.45;80.18
12471;BME280;36499;46.484;13.832;2022-10-15T00:21:17;93219.38;;;11.40;79.75
12471;BME280;36499;46.484;13.832;2022-10-15T00:23:47;93220.38;;;11.39;80.09
12471;BME280;36499;46.484;13.832;2022-10-15T00:26:17;93214.97;;;11.34;80.36
12471;BME280;36499;46.484;13.832;2022-10-15T00:28:45;93216.00;;;11.33;80.02
12471;BME280;36499;46.484;13.832;2022-10-15T00:31:18;93209.81;;;11.28;81.09
12471;BME280;36499;46.484;13.832;2022-10-15T00:33:53;93209.25;;;11.26;80.99
12471;BME280;36499;46.484;13.832;2022-10-15T00:36:26;93206.41;;;11.27;80.76
12471;BME280;36499;46.484;13.832;2022-10-15T00:38:54;93202.00;;;11.28;81.08
12471;BME280;36499;46.484;13.832;2022-10-15T00:41:27;93197.56;;;11.28;81.38
12471;BME280;36499;46.484;13.832;2022-10-15T00:43:57;93196.56;;;11.29;81.19
12471;BME280;36499;46.484;13.832;2022-10-15T00:46:31;93188.13;;;11.27;80.90
12471;BME280;36499;46.484;13.832;2022-10-15T00:49:08;93184.97;;;11.25;80.49
12471;BME280;36499;46.484;13.832;2022-10-15T00:51:46;93175.16;;;11.21;80.50
12471;BME280;36499;46.484;13.832;2022-10-15T00:54:15;93176.78;;;11.15;80.43
12471;BME280;36499;46.484;13.832;2022-10-15T00:56:46;93165.78;;;11.13;80.47
12471;BME280;36499;46.484;13.832;2022-10-15T00:59:17;93173.00;;;11.11;80.29
12471;BME280;36499;46.484;13.832;2022-10-15T01:01:46;93169.84;;;11.09;80.67
12471;BME280;36499;46.484;13.832;2022-10-15T01:04:17;93162.56;;;11.11;80.49
12471;BME280;36499;46.484;13.832;2022-10-15T01:06:47;93168.59;;;11.12;81.01
12471;BME280;36499;46.484;13.832;2022-10-15T01:09:14;93162.19;;;11.14;80.89
12471;BME280;36499;46.484;13.832;2022-10-15T01:11:44;93157.34;;;11.11;80.83
12471;BME280;36499;46.484;13.832;2022-10-15T01:14:30;93154.19;;;11.09;80.55
12471;BME280;36499;46.484;13.832;2022-10-15T01:17:09;93158.41;;;11.10;81.10
12471;BME280;36499;46.484;13.832;2022-10-15T01:20:19;93160.19;;;11.10;81.01
12471;BME280;36499;46.484;13.832;2022-10-15T01:23:17;93150.13;;;11.13;81.11
12471;BME280;36499;46.484;13.832;2022-10-15T01:26:06;93146.53;;;11.14;81.35
12471;BME280;36499;46.484;13.832;2022-10-15T01:28:55;93155.91;;;11.15;80.84
12471;BME280;36499;46.484;13.832;2022-10-15T01:31:39;93154.34;;;11.14;81.16
12471;BME280;36499;46.484;13.832;2022-10-15T01:34:17;93133.03;;;11.17;82.01
12471;BME280;36499;46.484;13.832;2022-10-15T01:36:55;93132.03;;;11.18;82.05
12471;BME280;36499;46.484;13.832;2022-10-15T01:39:30;93129.19;;;11.20;82.20
12471;BME280;36499;46.484;13.832;2022-10-15T01:42:06;93132.97;;;11.24;81.57
12471;BME280;36499;46.484;13.832;2022-10-15T01:44:47;93133.97;;;11.23;81.79
12471;BME280;36499;46.484;13.832;2022-10-15T01:47:23;93123.34;;;11.24;81.72
12471;BME280;36499;46.484;13.832;2022-10-15T01:49:55;93122.91;;;11.27;81.26
12471;BME280;36499;46.484;13.832;2022-10-15T01:52:33;93128.34;;;11.26;82.30
12471;BME280;36499;46.484;13.832;2022-10-15T01:55:05;93122.91;;;11.27;82.28
12471;BME280;36499;46.484;13.832;2022-10-15T01:57:35;93116.22;;;11.31;82.59
12471;BME280;36499;46.484;13.832;2022-10-15T02:00:04;93114.22;;;11.33;83.09
12471;BME280;36499;46.484;13.832;2022-10-15T02:02:33;93115.59;;;11.36;83.60
12471;BME280;36499;46.484;13.832;2022-10-15T02:05:00;93116.53;;;11.41;83.31
12471;BME280;36499;46.484;13.832;2022-10-15T02:07:39;93117.13;;;11.43;82.79
12471;BME280;36499;46.484;13.832;2022-10-15T02:10:18;93108.50;;;11.43;83.18
12471;BME280;36499;46.484;13.832;2022-10-15T02:13:03;93106.09;;;11.41;82.46
12471;BME280;36499;46.484;13.832;2022-10-15T02:15:48;93112.53;;;11.39;82.50
12471;BME280;36499;46.484;13.832;2022-10-15T02:18:29;93100.84;;;11.41;82.69
12471;BME280;36499;46.484;13.832;2022-10-15T02:21:10;93107.25;;;11.45;82.82
12471;BME280;36499;46.484;13.832;2022-10-15T02:23:48;93095.78;;;11.46;82.83
12471;BME280;36499;46.484;13.832;2022-10-15T02:26:20;93100.81;;;11.48;82.99
12471;BME280;36499;46.484;13.832;2022-10-15T02:28:56;93100.00;;;11.47;83.32
12471;BME280;36499;46.484;13.832;2022-10-15T02:31:34;93099.66;;;11.44;83.58
12471;BME280;36499;46.484;13.832;2022-10-15T02:34:10;93097.69;;;11.39;84.16
12471;BME280;36499;46.484;13.832;2022-10-15T02:36:41;93094.06;;;11.40;84.07
12471;BME280;36499;46.484;13.832;2022-10-15T02:39:13;93097.69;;;11.39;84.04
12471;BME280;36499;46.484;13.832;2022-10-15T02:41:43;93094.72;;;11.36;84.18
12471;BME280;36499;46.484;13.832;2022-10-15T02:44:12;93098.56;;;11.33;84.25
12471;BME280;36499;46.484;13.832;2022-10-15T02:46:39;93102.03;;;11.27;84.19
12471;BME280;36499;46.484;13.832;2022-10-15T02:49:08;93104.25;;;11.24;84.94
12471;BME280;36499;46.484;13.832;2022-10-15T02:51:37;93100.06;;;11.23;84.69
12471;BME280;36499;46.484;13.832;2022-10-15T02:54:06;93095.50;;;11.18;85.07
12471;BME280;36499;46.484;13.832;2022-10-15T02:56:33;93100.34;;;11.15;84.77
12471;BME280;36499;46.484;13.832;2022-10-15T02:59:01;93097.59;;;11.10;85.14
12471;BME280;36499;46.484;13.832;2022-10-15T03:01:31;93095.34;;;11.13;85.17
12471;BME280;36499;46.484;13.832;2022-10-15T03:03:59;93094.00;;;11.04;84.79
12471;BME280;36499;46.484;13.832;2022-10-15T03:06:31;93096.13;;;10.95;85.34
12471;BME280;36499;46.484;13.832;2022-10-15T03:08:59;93095.41;;;10.82;85.95
12471;BME280;36499;46.484;13.832;2022-10-15T03:11:26;93090.94;;;10.89;85.63
12471;BME280;36499;46.484;13.832;2022-10-15T03:13:53;93085.88;;;10.94;85.49
12471;BME280;36499;46.484;13.832;2022-10-15T03:16:20;93090.03;;;11.01;84.64
12471;BME280;36499;46.484;13.832;2022-10-15T03:18:47;93081.34;;;11.07;84.49
12471;BME280;36499;46.484;13.832;2022-10-15T03:21:15;93084.31;;;11.11;84.47
12471;BME280;36499;46.484;13.832;2022-10-15T03:23:47;93085.34;;;11.10;84.40
12471;BME280;36499;46.484;13.832;2022-10-15T03:26:18;93082.13;;;11.08;84.29
12471;BME280;36499;46.484;13.832;2022-10-15T03:28:46;93084.31;;;11.11;84.28
12471;BME280;36499;46.484;13.832;2022-10-15T03:31:13;93076.72;;;11.10;84.40
12471;BME280;36499;46.484;13.832;2022-10-15T03:33:41;93071.50;;;11.10;83.93
12471;BME280;36499;46.484;13.832;2022-10-15T03:36:09;93071.84;;;11.13;84.13
12471;BME280;36499;46.484;13.832;2022-10-15T03:38:36;93074.84;;;11.17;84.28
12471;BME280;36499;46.484;13.832;2022-10-15T03:41:05;93065.19;;;11.17;84.69
12471;BME280;36499;46.484;13.832;2022-10-15T03:43:32;93076.81;;;11.21;84.35
12471;BME280;36499;46.484;13.832;2022-10-15T03:46:01;93070.41;;;11.17;84.47
12471;BME280;36499;46.484;13.832;2022-10-15T03:48:29;93072.22;;;11.17;84.49
12471;BME280;36499;46.484;13.832;2022-10-15T03:50:56;93072.03;;;11.18;84.20
12471;BME280;36499;46.484;13.832;2022-10-15T03:53:23;93070.97;;;11.19;84.48
12471;BME280;36499;46.484;13.832;2022-10-15T03:55:50;93072.22;;;11.17;84.07
12471;BME280;36499;46.484;13.832;2022-10-15T03:58:19;93067.66;;;11.12;84.13
12471;BME280;36499;46.484;13.832;2022-10-15T04:00:46;93073.88;;;11.11;84.01
12471;BME280;36499;46.484;13.832;2022-10-15T04:03:14;93068.44;;;11.13;84.59
12471;BME280;36499;46.484;13.832;2022-10-15T04:05:41;93073.31;;;11.09;84.01
12471;BME280;36499;46.484;13.832;2022-10-15T04:08:08;93070.69;;;11.09;84.30
12471;BME280;36499;46.484;13.832;2022-10-15T04:10:36;93065.47;;;11.09;84.67
12471;BME280;36499;46.484;13.832;2022-10-15T04:13:03;93060.25;;;11.09;84.98
12471;BME280;36499;46.484;13.832;2022-10-15T04:15:39;93048.59;;;11.12;84.68
12471;BME280;36499;46.484;13.832;2022-10-15T04:18:10;93056.22;;;11.13;84.25
12471;BME280;36499;46.484;13.832;2022-10-15T04:20:37;93062.78;;;11.16;84.19
12471;BME280;36499;46.484;13.832;2022-10-15T04:23:07;93051.78;;;11.14;84.31
12471;BME280;36499;46.484;13.832;2022-10-15T04:25:36;93047.78;;;11.11;84.00
12471;BME280;36499;46.484;13.832;2022-10-15T04:28:05;93060.25;;;11.09;83.69
12471;BME280;36499;46.484;13.832;2022-10-15T04:30:35;93057.13;;;11.00;84.10
12471;BME280;36499;46.484;13.832;2022-10-15T04:33:03;93055.16;;;10.96;84.56
12471;BME280;36499;46.484;13.832;2022-10-15T04:35:30;93056.19;;;10.95;84.38
12471;BME280;36499;46.484;13.832;2022-10-15T04:37:57;93064.16;;;11.00;84.70
12471;BME280;36499;46.484;13.832;2022-10-15T04:40:25;93067.94;;;11.04;85.06
12471;BME280;36499;46.484;13.832;2022-10-15T04:42:53;93067.28;;;11.08;85.11
12471;BME280;36499;46.484;13.832;2022-10-15T04:45:20;93062.22;;;11.14;84.95
12471;BME280;36499;46.484;13.832;2022-10-15T04:47:49;93058.97;;;11.18;84.40
12471;BME280;36499;46.484;13.832;2022-10-15T04:50:16;93063.75;;;11.21;84.21
12471;BME280;36499;46.484;13.832;2022-10-15T04:52:43;93064.56;;;11.22;84.08
12471;BME280;36499;46.484;13.832;2022-10-15T04:55:12;93056.13;;;11.20;83.82
12471;BME280;36499;46.484;13.832;2022-10-15T04:57:43;93057.94;;;11.19;84.53
12471;BME280;36499;46.484;13.832;2022-10-15T05:00:12;93055.31;;;11.19;84.74
12471;BME280;36499;46.484;13.832;2022-10-15T05:02:49;93058.59;;;11.15;84.48
12471;BME280;36499;46.484;13.832;2022-10-15T05:05:16;93057.81;;;11.14;84.49
12471;BME280;36499;46.484;13.832;2022-10-15T05:07:43;93049.38;;;11.12;84.50
12471;BME280;36499;46.484;13.832;2022-10-15T05:10:10;93047.78;;;11.11;84.81
12471;BME280;36499;46.484;13.832;2022-10-15T05:12:38;93047.38;;;11.14;84.89
12471;BME280;36499;46.484;13.832;2022-10-15T05:15:06;93041.13;;;11.15;84.50
12471;BME280;36499;46.484;13.832;2022-10-15T05:17:33;93043.97;;;11.14;84.39
12471;BME280;36499;46.484;13.832;2022-10-15T05:20:02;93045.78;;;11.13;84.76
12471;BME280;36499;46.484;13.832;2022-10-15T05:22:29;93043.72;;;11.15;84.94
12471;BME280;36499;46.484;13.832;2022-10-15T05:24:56;93045.94;;;11.18;85.05
12471;BME280;36499;46.484;13.832;2022-10-15T05:27:23;93048.53;;;11.18;84.76
12471;BME280;36499;46.484;13.832;2022-10-15T05:29:51;93045.34;;;11.16;84.75
12471;BME280;36499;46.484;13.832;2022-10-15T05:32:18;93048.19;;;11.15;84.94
12471;BME280;36499;46.484;13.832;2022-10-15T05:34:45;93057.38;;;11.17;85.14
12471;BME280;36499;46.484;13.832;2022-10-15T05:37:15;93056.94;;;11.20;85.23
12471;BME280;36499;46.484;13.832;2022-10-15T05:39:42;93051.28;;;11.23;85.23
12471;BME280;36499;46.484;13.832;2022-10-15T05:42:09;93052.88;;;11.24;85.28
12471;BME280;36499;46.484;13.832;2022-10-15T05:44:37;93062.88;;;11.27;85.07
12471;BME280;36499;46.484;13.832;2022-10-15T05:47:04;93055.03;;;11.27;85.40
12471;BME280;36499;46.484;13.832;2022-10-15T05:49:37;93060.41;;;11.32;85.11
12471;BME280;36499;46.484;13.832;2022-10-15T05:52:04;93065.41;;;11.34;84.73
12471;BME280;36499;46.484;13.832;2022-10-15T05:54:33;93069.63;;;11.35;84.70
12471;BME280;36499;46.484;13.832;2022-10-15T05:57:00;93068.00;;;11.34;84.54
12471;BME280;36499;46.484;13.832;2022-10-15T05:59:27;93072.47;;;11.33;84.20
12471;BME280;36499;46.484;13.832;2022-10-15T06:01:54;93072.47;;;11.33;84.78
12471;BME280;36499;46.484;13.832;2022-10-15T06:04:21;93064.41;;;11.35;85.11
12471;BME280;36499;46.484;13.832;2022-10-15T06:06:48;93068.00;;;11.34;84.78
12471;BME280;36499;46.484;13.832;2022-10-15T06:09:16;93076.88;;;11.33;85.34
12471;BME280;36499;46.484;13.832;2022-10-15T06:11:44;93075.63;;;11.35;85.19
12471;BME280;36499;46.484;13.832;2022-10-15T06:14:12;93072.38;;;11.40;85.98
12471;BME280;36499;46.484;13.832;2022-10-15T06:16:39;93074.63;;;11.73;90.58
12471;BME280;36499;46.484;13.832;2022-10-15T06:19:07;93077.91;;;11.86;88.85
12471;BME280;36499;46.484;13.832;2022-10-15T06:21:34;93083.94;;;11.87;86.66
12471;BME280;36499;46.484;13.832;2022-10-15T06:24:01;93081.53;;;11.85;85.38
12471;BME280;36499;46.484;13.832;2022-10-15T06:26:29;93079.13;;;11.84;85.10
12471;BME280;36499;46.484;13.832;2022-10-15T06:28:58;93076.94;;;11.81;85.28
12471;BME280;36499;46.484;13.832;2022-10-15T06:31:25;93083.41;;;11.78;84.72
12471;BME280;36499;46.484;13.832;2022-10-15T06:33:52;93085.31;;;11.71;84.45
12471;BME280;36499;46.484;13.832;2022-10-15T06:36:20;93093.78;;;11.67;85.04
12471;BME280;36499;46.484;13.832;2022-10-15T06:38:49;93098.41;;;11.65;85.69
12471;BME280;36499;46.484;13.832;2022-10-15T06:41:16;93091.72;;;11.69;85.79
12471;BME280;36499;46.484;13.832;2022-10-15T06:43:43;93087.69;;;11.73;85.39
12471;BME280;36499;46.484;13.832;2022-10-15T06:46:12;93098.84;;;11.80;85.72
12471;BME280;36499;46.484;13.832;2022-10-15T06:48:39;93094.38;;;11.87;85.44
12471;BME280;36499;46.484;13.832;2022-10-15T06:51:06;93094.84;;;11.95;85.69
12471;BME280;36499;46.484;13.832;2022-10-15T06:53:33;93089.56;;;12.02;85.88
12471;BME280;36499;46.484;13.832;2022-10-15T06:56:02;93097.75;;;12.06;85.55
12471;BME280;36499;46.484;13.832;2022-10-15T06:58:30;93085.47;;;12.06;84.92
12471;BME280;36499;46.484;13.832;2022-10-15T07:01:01;93084.00;;;12.10;84.62
12471;BME280;36499;46.484;13.832;2022-10-15T07:03:33;93088.56;;;12.15;84.87
12471;BME280;36499;46.484;13.832;2022-10-15T07:06:07;93091.09;;;12.21;84.38
12471;BME280;36499;46.484;13.832;2022-10-15T07:08:35;93083.16;;;12.28;84.56
12471;BME280;36499;46.484;13.832;2022-10-15T07:11:05;93082.63;;;12.37;84.89
12471;BME280;36499;46.484;13.832;2022-10-15T07:13:33;93090.72;;;12.47;84.68
12471;BME280;36499;46.484;13.832;2022-10-15T07:16:04;93090.19;;;12.57;84.78
12471;BME280;36499;46.484;13.832;2022-10-15T07:18:33;93090.88;;;12.64;84.38
12471;BME280;36499;46.484;13.832;2022-10-15T07:21:00;93096.00;;;12.71;83.92
12471;BME280;36499;46.484;13.832;2022-10-15T07:23:27;93089.88;;;12.77;84.24
12471;BME280;36499;46.484;13.832;2022-10-15T07:25:57;93091.91;;;12.86;83.63
12471;BME280;36499;46.484;13.832;2022-10-15T07:28:25;93085.81;;;12.92;83.01
12471;BME280;36499;46.484;13.832;2022-10-15T07:30:52;93086.69;;;12.98;83.15
12471;BME280;36499;46.484;13.832;2022-10-15T07:33:20;93089.56;;;13.08;82.15
12471;BME280;36499;46.484;13.832;2022-10-15T07:35:48;93101.75;;;13.14;83.14
12471;BME280;36499;46.484;13.832;2022-10-15T07:38:15;93095.28;;;13.17;82.91
12471;BME280;36499;46.484;13.832;2022-10-15T07:40:44;93098.34;;;13.25;83.31
12471;BME280;36499;46.484;13.832;2022-10-15T07:43:11;93100.06;;;13.31;82.81
12471;BME280;36499;46.484;13.832;2022-10-15T07:45:38;93101.75;;;13.37;82.60
12471;BME280;36499;46.484;13.832;2022-10-15T07:48:06;93091.97;;;13.44;82.22
12471;BME280;36499;46.484;13.832;2022-10-15T07:50:33;93099.47;;;13.53;80.34
12471;BME280;36499;46.484;13.832;2022-10-15T07:53:03;93087.28;;;13.58;80.48
12471;BME280;36499;46.484;13.832;2022-10-15T07:55:30;93095.22;;;13.63;80.65
12471;BME280;36499;46.484;13.832;2022-10-15T07:57:57;93086.81;;;13.73;80.47
12471;BME280;36499;46.484;13.832;2022-10-15T08:00:25;93086.88;;;13.78;79.87
12471;BME280;36499;46.484;13.832;2022-10-15T08:02:52;93094.06;;;13.82;79.47
12471;BME280;36499;46.484;13.832;2022-10-15T08:05:20;93090.75;;;13.87;78.38
12471;BME280;36499;46.484;13.832;2022-10-15T08:07:47;93094.84;;;13.83;78.17
12471;BME280;36499;46.484;13.832;2022-10-15T08:10:16;93101.22;;;13.87;78.64
12471;BME280;36499;46.484;13.832;2022-10-15T08:12:43;93100.22;;;13.88;78.51
12471;BME280;36499;46.484;13.832;2022-10-15T08:15:10;93093.22;;;13.93;78.61
12471;BME280;36499;46.484;13.832;2022-10-15T08:17:37;93097.78;;;13.98;78.51
12471;BME280;36499;46.484;13.832;2022-10-15T08:20:06;93102.06;;;14.04;78.00
12471;BME280;36499;46.484;13.832;2022-10-15T08:22:33;93103.22;;;14.08;77.36
12471;BME280;36499;46.484;13.832;2022-10-15T08:25:00;93102.50;;;14.13;78.33
12471;BME280;36499;46.484;13.832;2022-10-15T08:27:29;93106.69;;;14.25;78.25
12471;BME280;36499;46.484;13.832;2022-10-15T08:29:57;93103.59;;;14.40;77.41
12471;BME280;36499;46.484;13.832;2022-10-15T08:32:24;93099.16;;;14.57;76.57
12471;BME280;36499;46.484;13.832;2022-10-15T08:34:51;93103.88;;;14.72;76.57
12471;BME280;36499;46.484;13.832;2022-10-15T08:37:19;93105.06;;;14.81;76.94
12471;BME280;36499;46.484;13.832;2022-10-15T08:39:46;93117.09;;;14.94;75.98
12471;BME280;36499;46.484;13.832;2022-10-15T08:42:18;93116.22;;;15.05;75.00
12471;BME280;36499;46.484;13.832;2022-10-15T08:44:54;93108.28;;;15.16;75.32
12471;BME280;36499;46.484;13.832;2022-10-15T08:47:33;93100.31;;;15.28;74.82
12471;BME280;36499;46.484;13.832;2022-10-15T08:50:15;93113.56;;;15.38;74.25
12471;BME280;36499;46.484;13.832;2022-10-15T08:52:47;93118.13;;;15.43;74.21
12471;BME280;36499;46.484;13.832;2022-10-15T08:55:18;93113.41;;;15.45;73.58
12471;BME280;36499;46.484;13.832;2022-10-15T08:57:52;93121.72;;;15.53;73.18
12471;BME280;36499;46.484;13.832;2022-10-15T09:00:31;93124.19;;;15.60;72.67
12471;BME280;36499;46.484;13.832;2022-10-15T09:03:04;93116.91;;;15.67;72.59
12471;BME280;36499;46.484;13.832;2022-10-15T09:05:44;93109.66;;;15.74;72.21
12471;BME280;36499;46.484;13.832;2022-10-15T09:08:21;93114.00;;;15.85;71.86
12471;BME280;36499;46.484;13.832;2022-10-15T09:10:53;93108.56;;;15.92;72.06
12471;BME280;36499;46.484;13.832;2022-10-15T09:13:27;93109.88;;;15.94;71.82
12471;BME280;36499;46.484;13.832;2022-10-15T09:16:04;93106.31;;;16.00;70.47
12471;BME280;36499;46.484;13.832;2022-10-15T09:18:41;93111.16;;;16.13;70.65
12471;BME280;36499;46.484;13.832;2022-10-15T09:21:12;93107.50;;;16.14;70.18
12471;BME280;36499;46.484;13.832;2022-10-15T09:23:40;93105.25;;;16.23;69.88
12471;BME280;36499;46.484;13.832;2022-10-15T09:26:22;93113.34;;;16.16;70.23
12471;BME280;36499;46.484;13.832;2022-10-15T09:29:13;93130.25;;;16.25;68.67
12471;BME280;36499;46.484;13.832;2022-10-15T09:31:53;93117.59;;;16.22;68.28
12471;BME280;36499;46.484;13.832;2022-10-15T09:34:33;93114.53;;;16.30;68.48
12471;BME280;36499;46.484;13.832;2022-10-15T09:37:10;93115.06;;;16.32;68.57
12471;BME280;36499;46.484;13.832;2022-10-15T09:40:21;93122.38;;;16.47;68.72
12471;BME280;36499;46.484;13.832;2022-10-15T09:42:55;93124.00;;;16.53;68.36
12471;BME280;36499;46.484;13.832;2022-10-15T09:45:24;93125.19;;;16.62;68.08
12471;BME280;36499;46.484;13.832;2022-10-15T09:47:58;93129.16;;;16.65;69.18
12471;BME280;36499;46.484;13.832;2022-10-15T09:50:34;93117.75;;;16.86;67.64
12471;BME280;36499;46.484;13.832;2022-10-15T09:53:15;93125.31;;;17.04;67.05
12471;BME280;36499;46.484;13.832;2022-10-15T09:55:48;93119.72;;;17.01;66.26
12471;BME280;36499;46.484;13.832;2022-10-15T09:58:21;93123.56;;;17.15;65.74
12471;BME280;36499;46.484;13.832;2022-10-15T10:00:57;93128.09;;;17.24;65.75
12471;BME280;36499;46.484;13.832;2022-10-15T10:03:30;93131.28;;;17.26;65.44
12471;BME280;36499;46.484;13.832;2022-10-15T10:06:04;93124.72;;;17.29;65.38
12471;BME280;36499;46.484;13.832;2022-10-15T10:08:37;93122.59;;;17.31;64.29
12471;BME280;36499;46.484;13.832;2022-10-15T10:11:08;93117.03;;;17.27;64.95
12471;BME280;36499;46.484;13.832;2022-10-15T10:13:44;93116.06;;;17.34;64.65
12471;BME280;36499;46.484;13.832;2022-10-15T10:16:14;93099.38;;;17.23;64.56
12471;BME280;36499;46.484;13.832;2022-10-15T10:19:01;93101.47;;;17.21;65.17
12471;BME280;36499;46.484;13.832;2022-10-15T10:21:32;93103.88;;;17.27;64.94
12471;BME280;36499;46.484;13.832;2022-10-15T10:24:27;93108.31;;;17.22;64.53
12471;BME280;36499;46.484;13.832;2022-10-15T10:26:57;93107.84;;;17.30;63.96
12471;BME280;36499;46.484;13.832;2022-10-15T10:29:26;93116.28;;;17.32;64.26
12471;BME280;36499;46.484;13.832;2022-10-15T10:31:55;93112.06;;;17.31;63.52
12471;BME280;36499;46.484;13.832;2022-10-15T10:34:27;93123.13;;;17.28;63.44
12471;BME280;36499;46.484;13.832;2022-10-15T10:36:56;93114.78;;;17.41;63.26
12471;BME280;36499;46.484;13.832;2022-10-15T10:39:26;93117.72;;;17.45;64.04
12471;BME280;36499;46.484;13.832;2022-10-15T10:41:57;93115.59;;;17.47;62.17
12471;BME280;36499;46.484;13.832;2022-10-15T10:44:30;93118.41;;;17.30;63.52
12471;BME280;36499;46.484;13.832;2022-10-15T10:47:13;93105.31;;;17.45;62.15
12471;BME280;36499;46.484;13.832;2022-10-15T10:49:48;93112.16;;;17.41;60.55
12471;BME280;36499;46.484;13.832;2022-10-15T10:52:23;93105.66;;;17.54;61.78
12471;BME280;36499;46.484;13.832;2022-10-15T10:55:01;93113.28;;;17.55;61.56
12471;BME280;36499;46.484;13.832;2022-10-15T10:57:41;93108.09;;;17.60;61.48
12471;BME280;36499;46.484;13.832;2022-10-15T11:00:17;93106.25;;;17.66;61.70
12471;BME280;36499;46.484;13.832;2022-10-15T11:02:46;93105.78;;;17.69;62.28
12471;BME280;36499;46.484;13.832;2022-10-15T11:05:21;93105.63;;;17.49;61.31
12471;BME280;36499;46.484;13.832;2022-10-15T11:07:59;93107.53;;;17.58;61.78
12471;BME280;36499;46.484;13.832;2022-10-15T11:10:34;93101.66;;;17.46;61.54
12471;BME280;36499;46.484;13.832;2022-10-15T11:13:29;93101.47;;;17.58;62.08
12471;BME280;36499;46.484;13.832;2022-10-15T11:16:06;93106.34;;;17.81;62.68
12471;BME280;36499;46.484;13.832;2022-10-15T11:19:09;93093.75;;;17.93;61.96
12471;BME280;36499;46.484;13.832;2022-10-15T11:21:55;93106.97;;;17.98;60.04
12471;BME280;36499;46.484;13.832;2022-10-15T11:24:40;93108.09;;;18.12;60.59
12471;BME280;36499;46.484;13.832;2022-10-15T11:27:28;93117.47;;;17.88;60.01
12471;BME280;36499;46.484;13.832;2022-10-15T11:30:21;93114.84;;;17.93;60.23
12471;BME280;36499;46.484;13.832;2022-10-15T11:33:06;93101.41;;;17.95;59.75
12471;BME280;36499;46.484;13.832;2022-10-15T11:35:45;93094.34;;;18.05;58.97
12471;BME280;36499;46.484;13.832;2022-10-15T11:38:25;93094.38;;;18.10;59.53
12471;BME280;36499;46.484;13.832;2022-10-15T11:41:15;93090.19;;;18.25;58.89
12471;BME280;36499;46.484;13.832;2022-10-15T11:44:02;93083.31;;;18.23;58.88
12471;BME280;36499;46.484;13.832;2022-10-15T11:46:42;93086.47;;;18.20;59.08
12471;BME280;36499;46.484;13.832;2022-10-15T11:49:31;93073.31;;;18.31;58.99
12471;BME280;36499;46.484;13.832;2022-10-15T11:52:40;93068.03;;;18.31;59.03
12471;BME280;36499;46.484;13.832;2022-10-15T11:55:20;93070.63;;;18.10;58.61
12471;BME280;36499;46.484;13.832;2022-10-15T11:58:01;93066.91;;;18.06;58.23
12471;BME280;36499;46.484;13.832;2022-10-15T12:00:34;93069.81;;;18.15;58.31
12471;BME280;36499;46.484;13.832;2022-10-15T12:03:21;93059.56;;;18.23;58.94
12471;BME280;36499;46.484;13.832;2022-10-15T12:05:53;93056.34;;;18.11;58.12
12471;BME280;36499;46.484;13.832;2022-10-15T12:08:25;93056.63;;;18.15;58.08
12471;BME280;36499;46.484;13.832;2022-10-15T12:11:18;93066.38;;;18.09;58.42
12471;BME280;36499;46.484;13.832;2022-10-15T12:13:55;93056.34;;;18.11;58.05
12471;BME280;36499;46.484;13.832;2022-10-15T12:16:35;93055.88;;;18.25;57.95
12471;BME280;36499;46.484;13.832;2022-10-15T12:19:15;93054.00;;;18.20;58.26
12471;BME280;36499;46.484;13.832;2022-10-15T12:22:02;93056.09;;;18.13;57.48
12471;BME280;36499;46.484;13.832;2022-10-15T12:24:54;93050.84;;;18.23;58.27
12471;BME280;36499;46.484;13.832;2022-10-15T12:27:30;93060.84;;;18.06;58.87
12471;BME280;36499;46.484;13.832;2022-10-15T12:30:22;93051.63;;;18.13;58.29
12471;BME280;36499;46.484;13.832;2022-10-15T12:32:52;93058.47;;;18.09;57.55
12471;BME280;36499;46.484;13.832;2022-10-15T12:35:33;93065.88;;;18.22;58.04
12471;BME280;36499;46.484;13.832;2022-10-15T12:38:19;93058.50;;;18.19;56.25
12471;BME280;36499;46.484;13.832;2022-10-15T12:41:01;93057.19;;;18.22;56.78
12471;BME280;36499;46.484;13.832;2022-10-15T12:43:33;93058.50;;;18.19;57.10
12471;BME280;36499;46.484;13.832;2022-10-15T12:46:03;93058.78;;;18.18;58.33
12471;BME280;36499;46.484;13.832;2022-10-15T12:48:36;93069.28;;;18.08;58.92
12471;BME280;36499;46.484;13.832;2022-10-15T12:51:37;93074.88;;;18.21;58.74
12471;BME280;36499;46.484;13.832;2022-10-15T12:54:37;93074.06;;;18.16;59.48
12471;BME280;36499;46.484;13.832;2022-10-15T12:57:54;93080.72;;;18.34;57.68
12471;BME280;36499;46.484;13.832;2022-10-15T13:00:38;93070.41;;;18.32;57.85
12471;BME280;36499;46.484;13.832;2022-10-15T13:03:32;93063.53;;;18.31;58.02
12471;BME280;36499;46.484;13.832;2022-10-15T13:06:32;93062.53;;;18.37;58.33
12471;BME280;36499;46.484;13.832;2022-10-15T13:09:26;93059.34;;;18.35;58.50
12471;BME280;36499;46.484;13.832;2022-10-15T13:11:56;93049.81;;;18.34;58.96
12471;BME280;36499;46.484;13.832;2022-10-15T13:14:30;93045.34;;;18.35;58.51
12471;BME280;36499;46.484;13.832;2022-10-15T13:17:04;93048.72;;;18.10;58.66
12471;BME280;36499;46.484;13.832;2022-10-15T13:19:37;93051.41;;;18.25;58.69
12471;BME280;36499;46.484;13.832;2022-10-15T13:22:20;93055.09;;;18.29;59.00